sensor_id;sensor_type;location;lat;lon;timestamp;pressure;altitude;pressure_sealevel;temperature;humidity
76594;BME280;65482;50.240;14.302;2022-12-18T00:01:53;101089.53;;;-10.35;68.57
76594;BME280;65482;50.240;14.302;2022-12-18T00:04:24;101098.00;;;-10.39;68.40
76594;BME280;65482;50.240;14.302;2022-12-18T00:06:50;101089.47;;;-10.43;68.84
76594;BME280;65482;50.240;14.302;2022-12-18T00:09:16;101090.31;;;-10.41;68.56
76594;BME280;65482;50.240;14.302;2022-12-18T00:11:41;101089.44;;;-10.49;68.35
76594;BME280;65482;50.240;14.302;2022-12-18T00:14:09;101091.94;;;-10.52;68.38
76594;BME280;65482;50.240;14.302;2022-12-18T00:16:34;101097.06;;;-10.49;68.75
76594;BME280;65482;50.240;14.302;2022-12-18T00:19:03;101097.03;;;-10.55;68.62
76594;BME280;65482;50.240;14.302;2022-12-18T00:21:30;101105.50;;;-10.59;68.32
76594;BME280;65482;50.240;14.302;2022-12-18T00:23:56;101103.78;;;-10.61;68.73
76594;BME280;65482;50.240;14.302;2022-12-18T00:26:27;101110.56;;;-10.63;68.33
76594;BME280;65482;50.240;14.302;2022-12-18T00:28:55;101116.53;;;-10.64;68.53
76594;BME280;65482;50.240;14.302;2022-12-18T00:31:24;101118.22;;;-10.66;68.63
76594;BME280;65482;50.240;14.302;2022-12-18T00:33:50;101115.63;;;-10.72;68.64
76594;BME280;65482;50.240;14.302;2022-12-18T00:36:18;101123.22;;;-10.75;68.54
76594;BME280;65482;50.240;14.302;2022-12-18T00:38:45;101129.16;;;-10.77;68.61
76594;BME280;65482;50.240;14.302;2022-12-18T00:41:14;101129.19;;;-10.76;68.89
76594;BME280;65482;50.240;14.302;2022-12-18T00:44:01;101135.97;;;-10.78;68.17
76594;BME280;65482;50.240;14.302;2022-12-18T00:46:26;101141.88;;;-10.84;68.39
76594;BME280;65482;50.240;14.302;2022-12-18T00:48:52;101135.88;;;-10.84;67.99
76594;BME280;65482;50.240;14.302;2022-12-18T00:51:18;101142.69;;;-10.88;67.98
76594;BME280;65482;50.240;14.302;2022-12-18T00:53:43;101146.03;;;-10.92;67.67
76594;BME280;65482;50.240;14.302;2022-12-18T00:56:12;101154.47;;;-10.94;67.83
76594;BME280;65482;50.240;14.302;2022-12-18T00:58:37;101152.75;;;-10.98;67.34
76594;BME280;65482;50.240;14.302;2022-12-18T01:01:04;101155.25;;;-11.03;67.47
76594;BME280;65482;50.240;14.302;2022-12-18T01:03:30;101156.91;;;-11.08;67.57
76594;BME280;65482;50.240;14.302;2022-12-18T01:05:56;101164.53;;;-11.10;67.63
76594;BME280;65482;50.240;14.302;2022-12-18T01:08:21;101156.84;;;-11.16;67.74
76594;BME280;65482;50.240;14.302;2022-12-18T01:10:47;101165.25;;;-11.23;67.66
76594;BME280;65482;50.240;14.302;2022-12-18T01:13:13;101165.28;;;-11.22;67.69
76594;BME280;65482;50.240;14.302;2022-12-18T01:15:38;101172.03;;;-11.25;67.58
76594;BME280;65482;50.240;14.302;2022-12-18T01:18:04;101173.69;;;-11.27;67.70
76594;BME280;65482;50.240;14.302;2022-12-18T01:20:29;101175.38;;;-11.29;67.89
76594;BME280;65482;50.240;14.302;2022-12-18T01:22:55;101178.72;;;-11.33;67.42
76594;BME280;65482;50.240;14.302;2022-12-18T01:25:20;101179.50;;;-11.36;67.87
76594;BME280;65482;50.240;14.302;2022-12-18T01:27:46;101176.09;;;-11.38;67.74
76594;BME280;65482;50.240;14.302;2022-12-18T01:30:12;101188.78;;;-11.43;67.52
76594;BME280;65482;50.240;14.302;2022-12-18T01:32:37;101186.22;;;-11.46;67.69
76594;BME280;65482;50.240;14.302;2022-12-18T01:35:03;101184.47;;;-11.48;67.94
76594;BME280;65482;50.240;14.302;2022-12-18T01:37:29;101189.56;;;-11.48;67.72
76594;BME280;65482;50.240;14.302;2022-12-18T01:39:54;101181.06;;;-11.50;67.82
76594;BME280;65482;50.240;14.302;2022-12-18T01:42:21;101186.13;;;-11.50;67.54
76594;BME280;65482;50.240;14.302;2022-12-18T01:50:20;101193.72;;;-11.55;67.47
76594;BME280;65482;50.240;14.302;2022-12-18T01:52:49;101192.97;;;-11.49;67.23
76594;BME280;65482;50.240;14.302;2022-12-18T01:55:19;101187.81;;;-11.52;67.19
76594;BME280;65482;50.240;14.302;2022-12-18T01:57:47;101192.88;;;-11.54;67.36
76594;BME280;65482;50.240;14.302;2022-12-18T02:00:15;101202.28;;;-11.51;67.48
76594;BME280;65482;50.240;14.302;2022-12-18T02:02:43;101196.34;;;-11.49;67.10
76594;BME280;65482;50.240;14.302;2022-12-18T02:05:10;101198.09;;;-11.48;66.72
76594;BME280;65482;50.240;14.302;2022-12-18T02:07:45;101212.59;;;-11.41;66.76
76594;BME280;65482;50.240;14.302;2022-12-18T02:13:12;101218.56;;;-11.37;66.51
76594;BME280;65482;50.240;14.302;2022-12-18T02:15:51;101221.97;;;-11.36;66.62
76594;BME280;65482;50.240;14.302;2022-12-18T02:18:24;101212.75;;;-11.30;66.31
76594;BME280;65482;50.240;14.302;2022-12-18T02:29:02;101224.19;;;-10.92;65.70
76594;BME280;65482;50.240;14.302;2022-12-18T02:31:33;101227.72;;;-10.79;65.26
76594;BME280;65482;50.240;14.302;2022-12-18T02:34:03;101238.06;;;-10.66;65.27
76594;BME280;65482;50.240;14.302;2022-12-18T02:36:31;101236.50;;;-10.51;65.31
76594;BME280;65482;50.240;14.302;2022-12-18T02:38:59;101231.47;;;-10.44;65.25
76594;BME280;65482;50.240;14.302;2022-12-18T02:41:26;101237.53;;;-10.31;65.59
76594;BME280;65482;50.240;14.302;2022-12-18T02:43:56;101240.97;;;-10.21;65.30
76594;BME280;65482;50.240;14.302;2022-12-18T02:46:37;101234.22;;;-10.16;64.82
76594;BME280;65482;50.240;14.302;2022-12-18T02:49:26;101238.56;;;-10.04;65.08
76594;BME280;65482;50.240;14.302;2022-12-18T02:52:05;101236.06;;;-9.95;65.48
76594;BME280;65482;50.240;14.302;2022-12-18T02:54:36;101231.06;;;-9.83;65.21
76594;BME280;65482;50.240;14.302;2022-12-18T02:57:16;101231.97;;;-9.74;65.29
76594;BME280;65482;50.240;14.302;2022-12-18T02:59:59;101237.94;;;-9.69;65.26
76594;BME280;65482;50.240;14.302;2022-12-18T03:02:34;101240.56;;;-9.62;65.41
76594;BME280;65482;50.240;14.302;2022-12-18T03:05:22;101231.19;;;-9.60;65.84
76594;BME280;65482;50.240;14.302;2022-12-18T03:08:13;101237.19;;;-9.51;66.07
76594;BME280;65482;50.240;14.302;2022-12-18T03:11:03;101236.34;;;-9.53;66.22
76594;BME280;65482;50.240;14.302;2022-12-18T03:13:36;101237.22;;;-9.45;66.09
76594;BME280;65482;50.240;14.302;2022-12-18T03:16:05;101235.53;;;-9.51;66.38
76594;BME280;65482;50.240;14.302;2022-12-18T03:18:44;101243.22;;;-9.37;66.28
76594;BME280;65482;50.240;14.302;2022-12-18T03:21:14;101242.44;;;-9.30;66.69
76594;BME280;65482;50.240;14.302;2022-12-18T03:23:47;101235.63;;;-9.28;67.15
76594;BME280;65482;50.240;14.302;2022-12-18T03:26:17;101239.03;;;-9.29;66.66
76594;BME280;65482;50.240;14.302;2022-12-18T03:28:51;101243.28;;;-9.29;66.88
76594;BME280;65482;50.240;14.302;2022-12-18T03:31:21;101237.34;;;-9.27;67.29
76594;BME280;65482;50.240;14.302;2022-12-18T03:33:53;101239.06;;;-9.20;67.29
76594;BME280;65482;50.240;14.302;2022-12-18T03:36:20;101251.88;;;-9.10;67.48
76594;BME280;65482;50.240;14.302;2022-12-18T03:38:46;101261.31;;;-8.97;67.41
76594;BME280;65482;50.240;14.302;2022-12-18T03:41:26;101250.25;;;-8.88;67.54
76594;BME280;65482;50.240;14.302;2022-12-18T03:44:11;101255.41;;;-8.85;67.58
76594;BME280;65482;50.240;14.302;2022-12-18T03:46:51;101252.84;;;-8.79;67.56
76594;BME280;65482;50.240;14.302;2022-12-18T03:49:35;101247.75;;;-8.68;67.81
76594;BME280;65482;50.240;14.302;2022-12-18T03:52:10;101253.72;;;-8.68;68.28
76594;BME280;65482;50.240;14.302;2022-12-18T03:54:39;101251.16;;;-8.62;68.05
76594;BME280;65482;50.240;14.302;2022-12-18T03:57:11;101251.19;;;-8.60;68.37
76594;BME280;65482;50.240;14.302;2022-12-18T03:59:39;101259.72;;;-8.55;68.31
76594;BME280;65482;50.240;14.302;2022-12-18T04:02:07;101259.72;;;-8.50;68.64
76594;BME280;65482;50.240;14.302;2022-12-18T04:04:35;101254.63;;;-8.43;68.49
76594;BME280;65482;50.240;14.302;2022-12-18T04:07:04;101263.13;;;-8.41;68.32
76594;BME280;65482;50.240;14.302;2022-12-18T04:09:31;101261.41;;;-8.34;67.93
76594;BME280;65482;50.240;14.302;2022-12-18T04:11:59;101261.44;;;-8.23;67.97
76594;BME280;65482;50.240;14.302;2022-12-18T04:14:24;101267.41;;;-8.27;67.73
76594;BME280;65482;50.240;14.302;2022-12-18T04:16:50;101265.72;;;-8.21;67.84
76594;BME280;65482;50.240;14.302;2022-12-18T04:19:15;101266.53;;;-8.22;68.12
76594;BME280;65482;50.240;14.302;2022-12-18T04:21:41;101270.81;;;-8.14;67.92
76594;BME280;65482;50.240;14.302;2022-12-18T04:24:07;101280.22;;;-8.07;68.04
76594;BME280;65482;50.240;14.302;2022-12-18T04:26:33;101280.22;;;-8.06;68.00
76594;BME280;65482;50.240;14.302;2022-12-18T04:28:59;101277.66;;;-7.98;67.72
76594;BME280;65482;50.240;14.302;2022-12-18T04:31:25;101272.53;;;-7.98;67.91
76594;BME280;65482;50.240;14.302;2022-12-18T04:33:51;101277.69;;;-7.86;68.19
76594;BME280;65482;50.240;14.302;2022-12-18T04:36:16;101268.25;;;-7.81;68.41
76594;BME280;65482;50.240;14.302;2022-12-18T04:38:42;101270.81;;;-7.82;68.37
76594;BME280;65482;50.240;14.302;2022-12-18T04:41:08;101277.66;;;-7.78;68.68
76594;BME280;65482;50.240;14.302;2022-12-18T04:43:33;101281.06;;;-7.68;68.25
76594;BME280;65482;50.240;14.302;2022-12-18T04:46:06;101284.47;;;-7.60;68.69
76594;BME280;65482;50.240;14.302;2022-12-18T04:48:32;101295.56;;;-7.55;68.12
76594;BME280;65482;50.240;14.302;2022-12-18T04:50:58;101289.56;;;-7.51;67.60
76594;BME280;65482;50.240;14.302;2022-12-18T04:53:23;101286.16;;;-7.44;67.79
76594;BME280;65482;50.240;14.302;2022-12-18T04:55:49;101287.88;;;-7.49;67.80
76594;BME280;65482;50.240;14.302;2022-12-18T04:58:14;101300.69;;;-7.47;68.36
76594;BME280;65482;50.240;14.302;2022-12-18T05:00:40;101298.13;;;-7.50;67.94
76594;BME280;65482;50.240;14.302;2022-12-18T05:03:05;101293.84;;;-7.44;68.26
76594;BME280;65482;50.240;14.302;2022-12-18T05:05:31;101290.41;;;-7.35;68.32
76594;BME280;65482;50.240;14.302;2022-12-18T05:07:59;101283.53;;;-7.25;68.63
76594;BME280;65482;50.240;14.302;2022-12-18T05:10:25;101286.09;;;-7.17;68.83
76594;BME280;65482;50.240;14.302;2022-12-18T05:12:50;101291.16;;;-7.07;69.08
76594;BME280;65482;50.240;14.302;2022-12-18T05:15:29;101295.44;;;-7.00;69.21
76594;BME280;65482;50.240;14.302;2022-12-18T05:17:56;101301.38;;;-6.88;69.11
76594;BME280;65482;50.240;14.302;2022-12-18T05:20:21;101305.63;;;-6.87;69.28
76594;BME280;65482;50.240;14.302;2022-12-18T05:22:47;101312.41;;;-6.71;68.69
76594;BME280;65482;50.240;14.302;2022-12-18T05:25:13;101311.56;;;-6.74;68.94
76594;BME280;65482;50.240;14.302;2022-12-18T05:27:38;101309.91;;;-6.80;69.55
76594;BME280;65482;50.240;14.302;2022-12-18T05:30:04;101315.88;;;-6.83;69.81
76594;BME280;65482;50.240;14.302;2022-12-18T05:32:30;101320.13;;;-6.75;69.98
76594;BME280;65482;50.240;14.302;2022-12-18T05:34:56;101326.13;;;-6.81;70.09
76594;BME280;65482;50.240;14.302;2022-12-18T05:37:22;101319.31;;;-6.85;70.49
76594;BME280;65482;50.240;14.302;2022-12-18T05:39:48;101322.72;;;-6.85;70.38
76594;BME280;65482;50.240;14.302;2022-12-18T05:42:13;101322.69;;;-6.78;70.52
76594;BME280;65482;50.240;14.302;2022-12-18T05:44:39;101322.69;;;-6.75;70.83
76594;BME280;65482;50.240;14.302;2022-12-18T05:47:05;101319.28;;;-6.76;70.81
76594;BME280;65482;50.240;14.302;2022-12-18T05:49:31;101328.72;;;-6.80;71.02
76594;BME280;65482;50.240;14.302;2022-12-18T05:51:57;101330.41;;;-6.77;70.85
76594;BME280;65482;50.240;14.302;2022-12-18T05:54:22;101330.41;;;-6.74;71.06
76594;BME280;65482;50.240;14.302;2022-12-18T05:56:48;101336.44;;;-6.90;71.15
76594;BME280;65482;50.240;14.302;2022-12-18T05:59:14;101342.44;;;-6.91;71.14
76594;BME280;65482;50.240;14.302;2022-12-18T06:01:39;101345.00;;;-6.93;71.73
76594;BME280;65482;50.240;14.302;2022-12-18T06:04:05;101342.44;;;-6.93;71.51
76594;BME280;65482;50.240;14.302;2022-12-18T06:06:30;101340.75;;;-6.94;71.69
76594;BME280;65482;50.240;14.302;2022-12-18T06:08:56;101339.88;;;-6.88;71.63
76594;BME280;65482;50.240;14.302;2022-12-18T06:11:24;101360.34;;;-6.79;71.59
76594;BME280;65482;50.240;14.302;2022-12-18T06:13:51;101361.19;;;-6.77;71.27
76594;BME280;65482;50.240;14.302;2022-12-18T06:16:17;101355.19;;;-6.71;71.30
76594;BME280;65482;50.240;14.302;2022-12-18T06:18:43;101359.47;;;-6.75;70.88
76594;BME280;65482;50.240;14.302;2022-12-18T06:21:09;101357.75;;;-6.73;70.88
76594;BME280;65482;50.240;14.302;2022-12-18T06:23:35;101367.19;;;-6.75;70.91
76594;BME280;65482;50.240;14.302;2022-12-18T06:26:08;101368.91;;;-6.74;71.23
76594;BME280;65482;50.240;14.302;2022-12-18T06:28:34;101368.84;;;-6.62;71.27
76594;BME280;65482;50.240;14.302;2022-12-18T06:31:00;101372.31;;;-6.76;70.85
76594;BME280;65482;50.240;14.302;2022-12-18T06:33:27;101371.44;;;-6.68;71.04
76594;BME280;65482;50.240;14.302;2022-12-18T06:35:53;101376.53;;;-6.55;70.79
76594;BME280;65482;50.240;14.302;2022-12-18T06:38:19;101386.78;;;-6.58;70.72
76594;BME280;65482;50.240;14.302;2022-12-18T06:40:45;101391.94;;;-6.60;70.78
76594;BME280;65482;50.240;14.302;2022-12-18T06:43:10;101396.22;;;-6.61;70.36
76594;BME280;65482;50.240;14.302;2022-12-18T06:45:36;101389.34;;;-6.54;70.50
76594;BME280;65482;50.240;14.302;2022-12-18T06:48:02;101391.91;;;-6.49;70.29
76594;BME280;65482;50.240;14.302;2022-12-18T06:50:27;101394.50;;;-6.52;70.86
76594;BME280;65482;50.240;14.302;2022-12-18T06:52:53;101402.19;;;-6.52;70.41
76594;BME280;65482;50.240;14.302;2022-12-18T06:55:19;101407.31;;;-6.48;70.30
76594;BME280;65482;50.240;14.302;2022-12-18T06:57:45;101413.28;;;-6.47;70.62
76594;BME280;65482;50.240;14.302;2022-12-18T07:00:11;101416.66;;;-6.37;70.24
76594;BME280;65482;50.240;14.302;2022-12-18T07:02:36;101418.38;;;-6.32;70.20
76594;BME280;65482;50.240;14.302;2022-12-18T07:05:02;101408.06;;;-6.27;70.00
76594;BME280;65482;50.240;14.302;2022-12-18T07:07:28;101426.03;;;-6.26;70.10
76594;BME280;65482;50.240;14.302;2022-12-18T07:09:53;101438.09;;;-6.38;69.84
76594;BME280;65482;50.240;14.302;2022-12-18T07:12:19;101433.81;;;-6.36;70.26
76594;BME280;65482;50.240;14.302;2022-12-18T07:14:45;101433.78;;;-6.33;69.97
76594;BME280;65482;50.240;14.302;2022-12-18T07:17:10;101438.09;;;-6.38;70.05
76594;BME280;65482;50.240;14.302;2022-12-18T07:19:36;101441.53;;;-6.49;70.62
76594;BME280;65482;50.240;14.302;2022-12-18T07:22:02;101439.84;;;-6.56;70.54
76594;BME280;65482;50.240;14.302;2022-12-18T07:24:27;101438.16;;;-6.60;70.89
76594;BME280;65482;50.240;14.302;2022-12-18T07:26:53;101450.97;;;-6.46;70.70
76594;BME280;65482;50.240;14.302;2022-12-18T07:29:19;101454.41;;;-6.60;71.06
76594;BME280;65482;50.240;14.302;2022-12-18T07:31:45;101456.09;;;-6.48;71.02
76594;BME280;65482;50.240;14.302;2022-12-18T07:34:12;101461.22;;;-6.48;71.11
76594;BME280;65482;50.240;14.302;2022-12-18T07:36:38;101457.81;;;-6.48;71.12
76594;BME280;65482;50.240;14.302;2022-12-18T07:39:03;101461.25;;;-6.52;71.30
76594;BME280;65482;50.240;14.302;2022-12-18T07:41:29;101468.91;;;-6.42;71.33
76594;BME280;65482;50.240;14.302;2022-12-18T07:43:55;101456.91;;;-6.43;71.46
76594;BME280;65482;50.240;14.302;2022-12-18T07:46:21;101470.56;;;-6.33;70.94
76594;BME280;65482;50.240;14.302;2022-12-18T07:48:46;101466.28;;;-6.29;71.13
76594;BME280;65482;50.240;14.302;2022-12-18T07:51:12;101463.72;;;-6.26;71.08
76594;BME280;65482;50.240;14.302;2022-12-18T07:53:38;101473.09;;;-6.19;71.33
76594;BME280;65482;50.240;14.302;2022-12-18T07:56:10;101467.09;;;-6.20;71.11
76594;BME280;65482;50.240;14.302;2022-12-18T07:58:36;101478.22;;;-6.16;71.10
76594;BME280;65482;50.240;14.302;2022-12-18T08:01:07;101476.47;;;-6.08;71.00
76594;BME280;65482;50.240;14.302;2022-12-18T08:03:33;101479.06;;;-6.06;71.19
76594;BME280;65482;50.240;14.302;2022-12-18T08:06:03;101475.56;;;-5.99;70.96
76594;BME280;65482;50.240;14.302;2022-12-18T08:08:29;101470.47;;;-6.02;71.12
76594;BME280;65482;50.240;14.302;2022-12-18T08:10:55;101475.59;;;-6.04;71.19
76594;BME280;65482;50.240;14.302;2022-12-18T08:13:20;101471.34;;;-6.05;71.12
76594;BME280;65482;50.240;14.302;2022-12-18T08:15:46;101468.75;;;-6.00;71.63
76594;BME280;65482;50.240;14.302;2022-12-18T08:18:11;101462.66;;;-5.91;71.30
76594;BME280;65482;50.240;14.302;2022-12-18T08:20:37;101458.34;;;-5.88;71.77
76594;BME280;65482;50.240;14.302;2022-12-18T08:23:03;101459.19;;;-5.87;71.67
76594;BME280;65482;50.240;14.302;2022-12-18T08:25:28;101465.19;;;-5.84;71.66
76594;BME280;65482;50.240;14.302;2022-12-18T08:27:54;101470.31;;;-5.82;71.68
76594;BME280;65482;50.240;14.302;2022-12-18T08:30:22;101475.44;;;-5.74;71.54
76594;BME280;65482;50.240;14.302;2022-12-18T08:32:51;101475.41;;;-5.71;71.94
76594;BME280;65482;50.240;14.302;2022-12-18T08:35:18;101488.22;;;-5.64;71.54
76594;BME280;65482;50.240;14.302;2022-12-18T08:37:43;101481.34;;;-5.62;71.45
76594;BME280;65482;50.240;14.302;2022-12-18T08:40:09;101483.03;;;-5.54;71.99
76594;BME280;65482;50.240;14.302;2022-12-18T08:42:35;101488.97;;;-5.48;72.07
76594;BME280;65482;50.240;14.302;2022-12-18T08:45:19;101481.22;;;-5.43;72.39
76594;BME280;65482;50.240;14.302;2022-12-18T08:47:45;101482.00;;;-5.30;72.64
76594;BME280;65482;50.240;14.302;2022-12-18T08:50:11;101495.63;;;-5.19;72.07
76594;BME280;65482;50.240;14.302;2022-12-18T08:52:37;101493.81;;;-5.06;72.30
76594;BME280;65482;50.240;14.302;2022-12-18T08:55:03;101492.91;;;-5.02;72.70
76594;BME280;65482;50.240;14.302;2022-12-18T08:57:29;101488.59;;;-5.02;72.74
76594;BME280;65482;50.240;14.302;2022-12-18T08:59:55;101485.97;;;-4.91;73.16
76594;BME280;65482;50.240;14.302;2022-12-18T09:02:20;101488.50;;;-4.88;72.63
76594;BME280;65482;50.240;14.302;2022-12-18T09:04:47;101489.31;;;-4.84;72.29
76594;BME280;65482;50.240;14.302;2022-12-18T09:07:13;101474.56;;;-4.65;71.90
76594;BME280;65482;50.240;14.302;2022-12-18T09:09:39;101473.66;;;-4.60;71.51
76594;BME280;65482;50.240;14.302;2022-12-18T09:12:04;101480.56;;;-4.66;71.67
76594;BME280;65482;50.240;14.302;2022-12-18T09:14:30;101490.94;;;-4.72;71.94
76594;BME280;65482;50.240;14.302;2022-12-18T09:16:56;101485.72;;;-4.65;72.39
76594;BME280;65482;50.240;14.302;2022-12-18T09:19:21;101490.72;;;-4.51;71.92
76594;BME280;65482;50.240;14.302;2022-12-18T09:21:47;101489.72;;;-4.39;72.17
76594;BME280;65482;50.240;14.302;2022-12-18T09:24:14;101501.84;;;-4.47;71.96
76594;BME280;65482;50.240;14.302;2022-12-18T09:26:39;101484.59;;;-4.44;72.20
76594;BME280;65482;50.240;14.302;2022-12-18T09:29:05;101493.16;;;-4.40;72.14
76594;BME280;65482;50.240;14.302;2022-12-18T09:31:32;101494.06;;;-4.43;72.29
76594;BME280;65482;50.240;14.302;2022-12-18T09:33:58;101500.88;;;-4.38;71.84
76594;BME280;65482;50.240;14.302;2022-12-18T09:36:24;101499.88;;;-4.25;71.84
76594;BME280;65482;50.240;14.302;2022-12-18T09:38:50;101505.13;;;-4.34;71.77
76594;BME280;65482;50.240;14.302;2022-12-18T09:43:54;101522.41;;;-4.46;71.64
76594;BME280;65482;50.240;14.302;2022-12-18T09:46:33;101529.22;;;-4.38;71.44
76594;BME280;65482;50.240;14.302;2022-12-18T09:49:04;101536.13;;;-4.42;71.34
76594;BME280;65482;50.240;14.302;2022-12-18T09:51:50;101550.69;;;-4.38;71.20
76594;BME280;65482;50.240;14.302;2022-12-18T09:54:22;101546.44;;;-4.42;71.23
76594;BME280;65482;50.240;14.302;2022-12-18T09:56:49;101532.69;;;-4.41;71.12
76594;BME280;65482;50.240;14.302;2022-12-18T10:01:46;101526.78;;;-4.49;70.81
76594;BME280;65482;50.240;14.302;2022-12-18T10:04:12;101531.16;;;-4.57;70.84
76594;BME280;65482;50.240;14.302;2022-12-18T10:10:00;101541.25;;;-4.37;70.59
76594;BME280;65482;50.240;14.302;2022-12-18T10:12:38;101537.78;;;-4.36;70.80
76594;BME280;65482;50.240;14.302;2022-12-18T10:18:15;101518.97;;;-4.42;70.38
76594;BME280;65482;50.240;14.302;2022-12-18T10:20:48;101512.91;;;-4.39;70.78
76594;BME280;65482;50.240;14.302;2022-12-18T10:26:05;101502.53;;;-4.33;69.74
76594;BME280;65482;50.240;14.302;2022-12-18T10:28:34;101501.72;;;-4.38;70.30
76594;BME280;65482;50.240;14.302;2022-12-18T10:31:00;101498.13;;;-4.22;69.72
76594;BME280;65482;50.240;14.302;2022-12-18T10:33:30;101501.63;;;-4.27;69.29
76594;BME280;65482;50.240;14.302;2022-12-18T10:35:57;101489.75;;;-4.41;69.53
76594;BME280;65482;50.240;14.302;2022-12-18T10:38:26;101477.75;;;-4.43;69.66
76594;BME280;65482;50.240;14.302;2022-12-18T10:41:01;101467.47;;;-4.46;70.32
76594;BME280;65482;50.240;14.302;2022-12-18T10:43:35;101469.22;;;-4.47;70.21
76594;BME280;65482;50.240;14.302;2022-12-18T10:48:34;101464.28;;;-4.67;70.60
76594;BME280;65482;50.240;14.302;2022-12-18T10:51:02;101470.19;;;-4.58;70.84
76594;BME280;65482;50.240;14.302;2022-12-18T10:53:30;101463.38;;;-4.64;70.55
76594;BME280;65482;50.240;14.302;2022-12-18T10:56:00;101472.75;;;-4.55;70.06
76594;BME280;65482;50.240;14.302;2022-12-18T10:58:31;101464.13;;;-4.53;70.22
76594;BME280;65482;50.240;14.302;2022-12-18T11:01:12;101460.72;;;-4.55;70.31
76594;BME280;65482;50.240;14.302;2022-12-18T11:04:00;101459.81;;;-4.49;70.62
76594;BME280;65482;50.240;14.302;2022-12-18T11:06:26;101453.59;;;-4.33;70.06
76594;BME280;65482;50.240;14.302;2022-12-18T11:11:24;101449.28;;;-4.34;69.47
76594;BME280;65482;50.240;14.302;2022-12-18T11:14:04;101452.88;;;-4.46;69.58
76594;BME280;65482;50.240;14.302;2022-12-18T11:16:34;101450.28;;;-4.44;69.59
76594;BME280;65482;50.240;14.302;2022-12-18T11:19:21;101452.88;;;-4.46;69.78
76594;BME280;65482;50.240;14.302;2022-12-18T11:21:49;101458.81;;;-4.39;68.97
76594;BME280;65482;50.240;14.302;2022-12-18T11:24:29;101463.16;;;-4.43;69.24
76594;BME280;65482;50.240;14.302;2022-12-18T11:26:58;101452.25;;;-4.66;69.51
76594;BME280;65482;50.240;14.302;2022-12-18T11:29:39;101456.63;;;-4.74;70.29
76594;BME280;65482;50.240;14.302;2022-12-18T11:34:42;101446.31;;;-4.74;69.98
76594;BME280;65482;50.240;14.302;2022-12-18T11:37:13;101433.38;;;-4.70;70.19
76594;BME280;65482;50.240;14.302;2022-12-18T11:39:50;101439.28;;;-4.58;70.21
76594;BME280;65482;50.240;14.302;2022-12-18T11:48:04;101461.63;;;-4.59;70.42
76594;BME280;65482;50.240;14.302;2022-12-18T11:50:48;101468.59;;;-4.70;70.54
76594;BME280;65482;50.240;14.302;2022-12-18T11:53:15;101466.75;;;-4.57;70.09
76594;BME280;65482;50.240;14.302;2022-12-18T11:55:56;101454.75;;;-4.62;70.04
76594;BME280;65482;50.240;14.302;2022-12-18T12:06:48;101449.22;;;-4.28;69.65
76594;BME280;65482;50.240;14.302;2022-12-18T12:12:33;101456.91;;;-4.23;69.82
76594;BME280;65482;50.240;14.302;2022-12-18T12:15:35;101442.28;;;-4.20;69.12
76594;BME280;65482;50.240;14.302;2022-12-18T12:26:10;101457.91;;;-4.35;70.48
76594;BME280;65482;50.240;14.302;2022-12-18T12:32:00;101466.25;;;-4.16;69.48
76594;BME280;65482;50.240;14.302;2022-12-18T12:40:19;101474.97;;;-4.28;70.20
76594;BME280;65482;50.240;14.302;2022-12-18T12:46:08;101485.19;;;-4.17;69.18
76594;BME280;65482;50.240;14.302;2022-12-18T12:48:56;101484.38;;;-4.22;69.72
76594;BME280;65482;50.240;14.302;2022-12-18T12:51:25;101480.97;;;-4.24;69.50
76594;BME280;65482;50.240;14.302;2022-12-18T12:53:53;101481.94;;;-4.34;69.34
76594;BME280;65482;50.240;14.302;2022-12-18T12:56:21;101493.22;;;-4.42;69.60
76594;BME280;65482;50.240;14.302;2022-12-18T12:58:51;101487.38;;;-4.57;69.71
76594;BME280;65482;50.240;14.302;2022-12-18T13:09:23;101492.66;;;-4.71;70.23
76594;BME280;65482;50.240;14.302;2022-12-18T13:11:49;101496.19;;;-4.85;70.65
76594;BME280;65482;50.240;14.302;2022-12-18T13:14:35;101480.69;;;-4.80;70.23
76594;BME280;65482;50.240;14.302;2022-12-18T13:19:50;101475.72;;;-5.00;71.34
76594;BME280;65482;50.240;14.302;2022-12-18T13:22:22;101470.59;;;-5.00;71.24
76594;BME280;65482;50.240;14.302;2022-12-18T13:24:48;101481.84;;;-5.12;71.13
76594;BME280;65482;50.240;14.302;2022-12-18T13:43:27;101456.31;;;-5.38;72.16
76594;BME280;65482;50.240;14.302;2022-12-18T13:46:02;101461.34;;;-5.23;71.73
76594;BME280;65482;50.240;14.302;2022-12-18T13:48:31;101466.59;;;-5.38;71.71
76594;BME280;65482;50.240;14.302;2022-12-18T13:51:02;101466.56;;;-5.33;71.95
76594;BME280;65482;50.240;14.302;2022-12-18T13:53:36;101469.22;;;-5.41;71.70
76594;BME280;65482;50.240;14.302;2022-12-18T13:56:03;101478.63;;;-5.42;71.82
76594;BME280;65482;50.240;14.302;2022-12-18T13:58:30;101478.63;;;-5.40;71.15
76594;BME280;65482;50.240;14.302;2022-12-18T14:00:56;101492.28;;;-5.33;71.15
76594;BME280;65482;50.240;14.302;2022-12-18T14:03:27;101500.00;;;-5.33;71.08
76594;BME280;65482;50.240;14.302;2022-12-18T14:05:55;101491.47;;;-5.37;71.00
76594;BME280;65482;50.240;14.302;2022-12-18T14:08:28;101489.75;;;-5.36;71.24
76594;BME280;65482;50.240;14.302;2022-12-18T14:10:57;101495.78;;;-5.42;71.17
76594;BME280;65482;50.240;14.302;2022-12-18T14:13:37;101513.88;;;-5.57;72.03
76594;BME280;65482;50.240;14.302;2022-12-18T14:16:06;101496.84;;;-5.72;72.08
76594;BME280;65482;50.240;14.302;2022-12-18T14:18:48;101495.06;;;-5.64;72.11
76594;BME280;65482;50.240;14.302;2022-12-18T14:21:20;101508.72;;;-5.54;72.03
76594;BME280;65482;50.240;14.302;2022-12-18T14:23:47;101496.72;;;-5.52;72.40
76594;BME280;65482;50.240;14.302;2022-12-18T14:26:22;101490.66;;;-5.44;72.33
76594;BME280;65482;50.240;14.302;2022-12-18T14:28:48;101490.72;;;-5.56;72.66
76594;BME280;65482;50.240;14.302;2022-12-18T14:31:27;101487.28;;;-5.53;72.90